createdAt,value
2019-04-03T00:04:15.803Z,90.60
2019-04-03T00:14:21.606Z,91.00
2019-04-03T00:24:27.231Z,96.90
2019-04-03T00:34:32.746Z,90.10
2019-04-03T00:44:38.460Z,89.40
2019-04-03T00:54:43.969Z,88.30
2019-04-03T01:04:49.690Z,89.90
2019-04-03T01:14:55.328Z,90.20
2019-04-03T01:25:00.968Z,93.40
2019-04-03T01:35:09.079Z,93.70
2019-04-03T01:45:13.979Z,94.80
2019-04-03T01:55:19.503Z,97.20
2019-04-03T02:05:25.093Z,93.60
2019-04-03T02:15:30.757Z,94.00
2019-04-03T02:25:36.349Z,94.20
2019-04-03T02:35:42.202Z,94.60
2019-04-03T02:45:48.289Z,96.20
2019-04-03T02:55:55.741Z,90.10
2019-04-03T03:06:01.517Z,88.40
2019-04-03T03:16:07.547Z,88.30
2019-04-03T03:26:13.186Z,88.50
2019-04-03T03:36:23.637Z,89.40
2019-04-03T03:46:28.875Z,88.50
2019-04-03T03:56:48.665Z,88.10
2019-04-03T04:06:54.431Z,86.80
2019-04-03T04:17:00.316Z,88.00
2019-04-03T04:27:06.141Z,88.40
2019-04-03T04:37:12.118Z,88.20
2019-04-03T04:47:17.775Z,87.90
2019-04-03T04:57:24.321Z,87.60
2019-04-03T05:07:30.785Z,86.60
2019-04-03T05:17:37.709Z,85.10
2019-04-03T05:27:43.320Z,84.00
2019-04-03T05:38:01.349Z,83.60
2019-04-03T05:48:12.048Z,82.10
2019-04-03T05:58:16.491Z,81.30
2019-04-03T06:08:21.307Z,79.80
2019-04-03T06:18:26.990Z,77.10
2019-04-03T06:28:32.597Z,78.20
2019-04-03T06:38:38.148Z,78.70
2019-04-03T06:48:43.895Z,77.80
2019-04-03T06:58:49.530Z,88.30
2019-04-03T07:08:55.237Z,79.40
2019-04-03T07:19:00.769Z,76.40
2019-04-03T07:29:06.635Z,76.20
2019-04-03T07:39:12.542Z,75.10
2019-04-03T07:49:18.405Z,78.50
2019-04-03T07:59:24.102Z,88.20
2019-04-03T08:09:30.455Z,80.50
2019-04-03T08:19:36.243Z,82.40
2019-04-03T08:49:56.453Z,92.30
2019-04-03T09:00:02.030Z,91.40
2019-04-03T09:10:10.193Z,89.70
2019-04-03T09:20:16.349Z,88.20
2019-04-03T09:30:22.216Z,81.80
2019-04-03T09:40:27.761Z,79.80
2019-04-03T09:50:33.273Z,68.40
2019-04-03T10:10:47.156Z,84.80
2019-04-03T10:30:58.529Z,83.80
2019-04-03T10:41:04.057Z,51.50
2019-04-03T11:01:15.619Z,47.60
2019-04-03T11:11:21.516Z,51.30
2019-04-03T11:21:27.497Z,36.80
2019-04-03T11:31:39.343Z,36.50
2019-04-03T11:41:40.597Z,36.20
2019-04-03T11:51:46.502Z,34.10
2019-04-03T12:01:52.221Z,34.30
2019-04-03T12:11:57.938Z,33.20
2019-04-03T12:22:03.665Z,51.80
2019-04-03T12:32:09.855Z,40.20
2019-04-03T12:42:17.253Z,42.10
2019-04-03T12:52:24.301Z,41.20
2019-04-03T13:02:30.123Z,42.10
2019-04-03T13:12:36.173Z,43.40
2019-04-03T13:22:42.950Z,43.30
2019-04-03T13:53:02.633Z,57.50
2019-04-03T14:03:08.544Z,55.40
2019-04-03T14:13:14.502Z,54.60
2019-04-03T14:23:20.537Z,56.70
2019-04-03T14:33:26.300Z,53.70
2019-04-03T14:43:34.029Z,59.20
2019-04-03T14:53:40.178Z,60.00
2019-04-03T15:03:46.184Z,56.60
2019-04-03T15:13:52.058Z,61.20
2019-04-03T15:23:58.097Z,63.90
2019-04-03T15:34:04.026Z,58.50
2019-04-03T15:44:10.138Z,65.00
2019-04-03T15:54:16.207Z,66.00
2019-04-03T16:04:22.075Z,68.40
2019-04-03T16:14:29.014Z,66.80
2019-04-03T16:24:35.471Z,66.60
2019-04-03T16:34:45.131Z,65.20
2019-04-03T16:44:53.272Z,67.40
2019-04-03T16:54:59.187Z,67.30
2019-04-03T17:05:06.796Z,70.10
2019-04-03T17:15:13.541Z,69.20
2019-04-03T17:25:20.543Z,69.70
2019-04-03T17:35:31.070Z,72.80
2019-04-03T17:45:46.160Z,76.80
2019-04-03T17:56:02.423Z,82.20
2019-04-03T18:06:10.310Z,80.00
2019-04-03T18:16:19.699Z,74.60
2019-04-03T18:26:27.084Z,75.40
2019-04-03T18:36:33.207Z,78.40
2019-04-03T18:46:42.452Z,78.20
2019-04-03T18:56:48.591Z,81.00
2019-04-03T19:06:56.445Z,85.40
2019-04-03T19:27:08.104Z,94.90
2019-04-03T19:37:14.127Z,94.90
2019-04-03T19:47:28.681Z,95.60
2019-04-03T19:57:34.965Z,95.30
2019-04-03T20:07:41.046Z,94.30
2019-04-03T20:17:47.042Z,94.60
2019-04-03T20:27:56.816Z,94.40
2019-04-03T20:38:02.247Z,92.30
2019-04-03T20:48:08.180Z,94.80
2019-04-03T20:58:14.163Z,96.60
2019-04-03T21:18:25.920Z,97.60
2019-04-03T21:28:31.430Z,84.20
2019-04-03T21:38:36.952Z,83.40
2019-04-03T21:48:42.902Z,82.90
2019-04-03T21:58:49.693Z,83.90
2019-04-03T22:08:55.322Z,85.30
2019-04-03T22:29:06.049Z,94.30
2019-04-03T22:39:13.647Z,91.00
2019-04-03T22:49:19.200Z,70.10
2019-04-03T22:59:24.858Z,71.10
2019-04-03T23:09:30.398Z,69.80
2019-04-03T23:19:36.148Z,69.50
2019-04-03T23:29:41.837Z,69.70
2019-04-03T23:39:47.461Z,69.80
2019-04-03T23:49:52.998Z,71.90
2019-04-03T23:59:59.613Z,69.40
